createdAt,value
2019-06-20T00:01:49.565Z,60.60
2019-06-20T00:06:53.920Z,60.70
2019-06-20T00:11:58.467Z,60.90
2019-06-20T00:17:03.010Z,60.90
2019-06-20T00:22:04.510Z,60.90
2019-06-20T00:27:11.592Z,60.90
2019-06-20T00:32:13.884Z,60.90
2019-06-20T00:37:19.365Z,60.80
2019-06-20T00:42:21.866Z,60.60
2019-06-20T00:47:23.112Z,61.00
2019-06-20T00:52:26.642Z,60.70
2019-06-20T00:57:31.051Z,60.90
2019-06-20T01:02:35.394Z,61.00
2019-06-20T01:07:39.855Z,61.20
2019-06-20T01:12:41.368Z,61.20
2019-06-20T01:18:16.748Z,61.50
2019-06-20T01:23:25.109Z,61.80
2019-06-20T01:28:26.356Z,62.00
2019-06-20T01:33:33.593Z,62.10
2019-06-20T01:38:38.161Z,62.20
2019-06-20T01:44:00.972Z,62.80
2019-06-20T01:49:08.285Z,62.60
2019-06-20T01:54:12.935Z,63.10
2019-06-20T01:59:14.088Z,63.00
2019-06-20T02:04:29.712Z,62.80
2019-06-20T02:09:34.249Z,62.90
2019-06-20T02:14:55.744Z,62.80
2019-06-20T02:19:57.178Z,62.90
2019-06-20T02:25:04.002Z,62.90
2019-06-20T02:30:38.988Z,62.80
2019-06-20T02:35:48.647Z,62.90
2019-06-20T02:40:49.918Z,63.00
2019-06-20T02:46:01.421Z,63.00
2019-06-20T02:51:02.992Z,63.00
2019-06-20T02:56:33.015Z,63.00
2019-06-20T03:01:34.299Z,63.10
2019-06-20T03:06:42.115Z,63.00
2019-06-20T03:11:45.535Z,63.20
2019-06-20T03:16:47.947Z,63.20
2019-06-20T03:22:03.632Z,63.10
2019-06-20T03:27:05.113Z,63.10
2019-06-20T03:32:06.481Z,63.10
2019-06-20T03:37:14.090Z,63.10
2019-06-20T03:42:15.580Z,63.00
2019-06-20T03:47:32.096Z,63.00
2019-06-20T03:52:44.612Z,63.00
2019-06-20T03:57:46.998Z,63.00
2019-06-20T04:02:48.290Z,62.70
2019-06-20T04:07:52.728Z,62.40
2019-06-20T04:12:57.260Z,62.20
2019-06-20T04:18:04.637Z,62.20
2019-06-20T04:23:06.028Z,62.50
2019-06-20T04:28:10.691Z,62.50
2019-06-20T04:33:17.784Z,62.50
2019-06-20T04:38:19.041Z,62.30
2019-06-20T04:43:23.592Z,62.50
2019-06-20T04:48:28.152Z,62.40
2019-06-20T04:53:35.262Z,62.50
2019-06-20T04:58:52.953Z,62.50
2019-06-20T05:03:58.124Z,62.30
2019-06-20T05:08:59.531Z,62.00
2019-06-20T05:14:00.805Z,61.90
2019-06-20T05:19:02.155Z,62.00
2019-06-20T05:24:06.749Z,62.00
2019-06-20T05:29:10.029Z,62.10
2019-06-20T05:34:14.554Z,62.50
2019-06-20T05:39:39.543Z,62.80
2019-06-20T05:44:46.822Z,63.10
2019-06-20T05:49:50.313Z,63.10
2019-06-20T05:55:13.341Z,63.10
2019-06-20T06:00:16.521Z,62.90
2019-06-20T06:05:48.968Z,63.20
2019-06-20T06:10:53.433Z,63.20
2019-06-20T06:15:54.800Z,63.20
2019-06-20T06:20:59.403Z,63.10
2019-06-20T06:26:03.888Z,62.90
2019-06-20T06:31:05.178Z,63.00
2019-06-20T06:36:13.586Z,63.00
2019-06-20T06:41:18.184Z,63.70
2019-06-20T06:46:19.595Z,63.10
2019-06-20T06:51:28.025Z,63.20
2019-06-20T06:56:29.332Z,63.20
2019-06-20T07:01:36.570Z,63.20
2019-06-20T07:06:37.863Z,63.30
2019-06-20T07:11:48.247Z,62.80
2019-06-20T07:16:59.753Z,62.70
2019-06-20T07:22:02.906Z,62.40
2019-06-20T07:27:22.664Z,62.20
2019-06-20T07:32:36.577Z,62.00
2019-06-20T07:37:48.133Z,61.40
2019-06-20T07:43:01.549Z,61.00
2019-06-20T07:48:03.156Z,60.50
2019-06-20T07:53:13.635Z,60.00
2019-06-20T07:58:18.570Z,59.90
2019-06-20T08:03:28.908Z,60.00
2019-06-20T08:08:33.384Z,59.80
2019-06-20T08:13:35.808Z,59.80
2019-06-20T08:18:40.340Z,60.10
2019-06-20T08:23:43.703Z,60.60
2019-06-20T08:28:48.226Z,61.20
2019-06-20T08:33:52.974Z,61.20
2019-06-20T08:39:07.222Z,61.00
2019-06-20T08:44:11.740Z,61.10
2019-06-20T08:49:13.192Z,61.10
2019-06-20T08:54:17.689Z,61.50
2019-06-20T08:59:24.814Z,61.00
2019-06-20T09:04:24.916Z,60.50
2019-06-20T09:09:32.069Z,60.00
2019-06-20T09:14:42.615Z,59.60
2019-06-20T09:19:44.106Z,59.30
2019-06-20T09:24:56.812Z,59.20
2019-06-20T09:30:00.541Z,59.20
2019-06-20T09:35:09.606Z,59.10
2019-06-20T09:40:14.486Z,59.70
2019-06-20T09:45:19.501Z,60.00
2019-06-20T09:50:35.290Z,60.20
2019-06-20T09:55:42.374Z,59.70
2019-06-20T10:00:47.650Z,58.60
2019-06-20T10:05:52.506Z,57.60
2019-06-20T10:10:54.146Z,56.90
2019-06-20T10:15:58.958Z,56.60
2019-06-20T10:26:51.849Z,57.90
2019-06-20T10:31:59.028Z,59.00
2019-06-20T10:37:03.521Z,60.10
2019-06-20T10:42:11.292Z,60.90
2019-06-20T10:47:13.772Z,62.10
2019-06-20T10:52:16.443Z,62.70
2019-06-20T10:57:46.740Z,62.20
2019-06-20T11:03:00.423Z,61.60
2019-06-20T11:08:07.693Z,61.40
2019-06-20T11:13:11.616Z,60.50
2019-06-20T11:18:14.065Z,60.00
2019-06-20T11:23:18.534Z,58.00
2019-06-20T11:28:19.842Z,57.00
2019-06-20T11:33:21.140Z,57.40
2019-06-20T11:38:26.227Z,57.60
2019-06-20T11:43:30.825Z,58.30
2019-06-20T11:48:50.409Z,59.20
2019-06-20T11:54:10.261Z,58.70
2019-06-20T11:59:20.684Z,58.70
2019-06-20T12:04:23.105Z,58.70
2019-06-20T12:09:25.489Z,57.40
2019-06-20T12:14:44.329Z,57.30
2019-06-20T12:19:54.792Z,56.80
2019-06-20T12:24:59.407Z,57.10
2019-06-20T12:30:14.744Z,55.20
2019-06-20T12:35:19.608Z,57.70
2019-06-20T12:40:22.975Z,60.20
2019-06-20T12:45:34.386Z,60.00
2019-06-20T12:50:42.945Z,58.10
2019-06-20T12:55:58.537Z,57.30
2019-06-20T13:01:01.964Z,57.40
2019-06-20T13:06:03.403Z,57.40
2019-06-20T13:11:07.855Z,56.70
2019-06-20T13:16:15.180Z,58.50
2019-06-20T13:21:18.958Z,59.50
2019-06-20T13:26:25.476Z,60.70
2019-06-20T13:31:31.293Z,60.10
2019-06-20T13:37:10.044Z,60.00
2019-06-20T13:42:11.343Z,59.80
2019-06-20T13:47:20.014Z,59.70
2019-06-20T13:52:24.427Z,59.20
2019-06-20T13:57:29.940Z,59.50
2019-06-20T14:02:31.153Z,59.60
2019-06-20T14:07:43.787Z,58.80
2019-06-20T14:12:54.579Z,59.40
2019-06-20T14:18:04.456Z,57.90
2019-06-20T14:23:11.499Z,56.80
2019-06-20T14:28:15.882Z,56.50
2019-06-20T14:33:19.312Z,58.30
2019-06-20T14:38:23.742Z,57.50
2019-06-20T14:43:27.059Z,57.50
2019-06-20T14:48:30.390Z,58.80
2019-06-20T14:53:54.582Z,58.70
2019-06-20T14:59:01.786Z,59.30
2019-06-20T15:04:09.217Z,58.80
2019-06-20T15:09:29.554Z,58.80
2019-06-20T15:14:30.836Z,58.80
2019-06-20T15:19:34.173Z,56.80
2019-06-20T15:24:35.647Z,56.90
2019-06-20T15:29:40.429Z,56.70
2019-06-20T15:34:41.684Z,56.20
2019-06-20T15:39:50.279Z,55.90
2019-06-20T15:44:54.135Z,57.00
2019-06-20T15:50:08.015Z,57.70
2019-06-20T15:55:09.498Z,58.80
2019-06-20T16:00:13.766Z,58.10
2019-06-20T16:05:41.813Z,58.00
2019-06-20T16:10:46.425Z,57.60
2019-06-20T16:15:53.545Z,54.70
2019-06-20T16:21:36.644Z,55.00
2019-06-20T16:26:38.021Z,55.30
2019-06-20T16:31:57.623Z,57.10
2019-06-20T16:37:09.627Z,57.50
2019-06-20T16:42:08.469Z,56.60
2019-06-20T16:47:47.030Z,56.20
2019-06-20T16:52:54.341Z,56.30
2019-06-20T16:57:58.742Z,56.50
2019-06-20T17:03:04.168Z,56.20
2019-06-20T17:08:08.727Z,56.00
2019-06-20T17:13:11.236Z,56.10
2019-06-20T17:18:15.730Z,56.10
2019-06-20T17:23:30.467Z,55.70
2019-06-20T17:28:33.057Z,55.60
2019-06-20T17:33:37.618Z,55.80
2019-06-20T17:38:57.166Z,56.00
2019-06-20T17:44:01.715Z,56.20
2019-06-20T17:49:03.320Z,56.00
2019-06-20T17:54:04.591Z,56.00
2019-06-20T17:59:11.741Z,56.30
2019-06-20T18:04:16.252Z,56.20
2019-06-20T18:09:29.236Z,56.00
2019-06-20T18:14:39.507Z,55.80
2019-06-20T18:19:40.907Z,55.80
2019-06-20T18:24:42.276Z,55.70
2019-06-20T18:29:46.768Z,55.90
2019-06-20T18:35:01.489Z,55.80
2019-06-20T18:39:57.549Z,55.90
2019-06-20T18:45:11.999Z,56.00
2019-06-20T18:50:19.502Z,56.00
2019-06-20T18:55:22.055Z,56.00
2019-06-20T19:00:34.518Z,56.20
2019-06-20T19:05:46.984Z,56.40
2019-06-20T19:11:08.288Z,56.60
2019-06-20T19:16:09.600Z,56.70
2019-06-20T19:21:16.721Z,56.70
2019-06-20T19:26:17.994Z,56.80
2019-06-20T19:31:21.384Z,56.90
2019-06-20T19:36:22.661Z,57.00
2019-06-20T19:41:26.190Z,57.10
2019-06-20T19:46:30.817Z,57.20
2019-06-20T19:51:49.394Z,57.40
2019-06-20T19:56:56.571Z,57.40
2019-06-20T20:01:57.852Z,57.50
2019-06-20T20:07:30.222Z,57.50
2019-06-20T20:12:34.906Z,57.50
2019-06-20T20:18:04.294Z,57.50
2019-06-20T20:23:05.589Z,57.50
2019-06-20T20:28:09.098Z,57.60
2019-06-20T20:33:16.405Z,57.60
2019-06-20T20:38:20.960Z,57.50
2019-06-20T20:43:28.246Z,57.60
2019-06-20T20:48:32.811Z,57.60
2019-06-20T20:53:37.338Z,57.70
2019-06-20T20:58:45.466Z,57.60
2019-06-20T21:03:52.600Z,57.70
2019-06-20T21:09:16.017Z,57.50
2019-06-20T21:14:23.202Z,57.50
2019-06-20T21:19:28.635Z,57.50
2019-06-20T21:24:33.229Z,57.60
2019-06-20T21:29:35.586Z,57.60
2019-06-20T21:34:43.165Z,57.50
2019-06-20T21:39:47.703Z,57.40
2019-06-20T21:44:49.011Z,57.50
2019-06-20T21:49:53.455Z,57.50
2019-06-20T21:54:54.893Z,57.50
2019-06-20T22:00:13.546Z,57.60
2019-06-20T22:05:17.359Z,57.60
2019-06-20T22:10:22.353Z,57.70
2019-06-20T22:15:23.717Z,57.70
2019-06-20T22:20:28.498Z,57.60
2019-06-20T22:25:30.045Z,57.60
2019-06-20T22:30:49.069Z,57.80
2019-06-20T22:36:03.809Z,57.90
2019-06-20T22:41:08.347Z,58.10
2019-06-20T22:46:09.820Z,58.00
2019-06-20T22:51:14.362Z,57.60
2019-06-20T22:56:18.985Z,57.60
2019-06-20T23:01:20.362Z,57.80
2019-06-20T23:06:23.698Z,57.60
2019-06-20T23:11:38.119Z,57.80
2019-06-20T23:16:42.609Z,57.90
2019-06-20T23:21:45.969Z,58.00
2019-06-20T23:26:57.539Z,58.00
2019-06-20T23:32:02.177Z,58.00
2019-06-20T23:37:13.028Z,57.90
2019-06-20T23:42:18.237Z,57.80
2019-06-20T23:47:25.357Z,58.00
2019-06-20T23:52:31.752Z,58.30
2019-06-20T23:57:33.075Z,58.30
